sensor_id;sensor_type;location;lat;lon;timestamp;temperature;humidity
35043;DHT22;21230;51.170;17.024;2023-04-06T00:02:10;-0.60;99.90
35043;DHT22;21230;51.170;17.024;2023-04-06T00:04:36;-0.60;99.90
35043;DHT22;21230;51.170;17.024;2023-04-06T00:07:04;-0.60;99.90
35043;DHT22;21230;51.170;17.024;2023-04-06T00:09:33;-0.60;99.90
35043;DHT22;21230;51.170;17.024;2023-04-06T00:12:14;-0.70;99.90
35043;DHT22;21230;51.170;17.024;2023-04-06T00:14:54;-0.70;99.90
35043;DHT22;21230;51.170;17.024;2023-04-06T00:17:37;-0.80;99.90
35043;DHT22;21230;51.170;17.024;2023-04-06T00:20:08;-0.90;99.90
35043;DHT22;21230;51.170;17.024;2023-04-06T00:22:38;-0.90;99.90
35043;DHT22;21230;51.170;17.024;2023-04-06T00:25:06;-0.90;99.90
35043;DHT22;21230;51.170;17.024;2023-04-06T00:27:35;-1.00;99.90
35043;DHT22;21230;51.170;17.024;2023-04-06T00:30:01;-1.00;99.90
35043;DHT22;21230;51.170;17.024;2023-04-06T00:32:27;-1.00;99.90
35043;DHT22;21230;51.170;17.024;2023-04-06T00:34:53;-1.10;99.90
35043;DHT22;21230;51.170;17.024;2023-04-06T00:37:18;-1.20;99.90
35043;DHT22;21230;51.170;17.024;2023-04-06T00:39:47;-1.30;99.90
35043;DHT22;21230;51.170;17.024;2023-04-06T00:42:19;-1.30;99.90
35043;DHT22;21230;51.170;17.024;2023-04-06T00:45:00;-1.20;99.90
35043;DHT22;21230;51.170;17.024;2023-04-06T00:47:26;-1.30;99.90
35043;DHT22;21230;51.170;17.024;2023-04-06T00:49:53;-1.40;99.90
35043;DHT22;21230;51.170;17.024;2023-04-06T00:55:05;-1.40;99.90
35043;DHT22;21230;51.170;17.024;2023-04-06T00:57:30;-1.40;99.90
35043;DHT22;21230;51.170;17.024;2023-04-06T00:59:56;-1.40;99.90
35043;DHT22;21230;51.170;17.024;2023-04-06T01:02:23;-1.40;99.90
35043;DHT22;21230;51.170;17.024;2023-04-06T01:04:48;-1.40;99.90
35043;DHT22;21230;51.170;17.024;2023-04-06T01:07:27;-1.30;99.90
35043;DHT22;21230;51.170;17.024;2023-04-06T01:09:53;-1.20;99.90
35043;DHT22;21230;51.170;17.024;2023-04-06T01:12:18;-1.30;99.90
35043;DHT22;21230;51.170;17.024;2023-04-06T01:14:47;-1.30;99.90
35043;DHT22;21230;51.170;17.024;2023-04-06T01:17:14;-1.30;99.90
35043;DHT22;21230;51.170;17.024;2023-04-06T01:19:43;-1.30;99.90
35043;DHT22;21230;51.170;17.024;2023-04-06T01:22:18;-1.30;99.90
35043;DHT22;21230;51.170;17.024;2023-04-06T01:24:44;-1.30;99.90
35043;DHT22;21230;51.170;17.024;2023-04-06T01:27:22;-1.30;99.90
35043;DHT22;21230;51.170;17.024;2023-04-06T01:29:53;-1.30;99.90
35043;DHT22;21230;51.170;17.024;2023-04-06T01:32:26;-1.30;99.90
35043;DHT22;21230;51.170;17.024;2023-04-06T01:34:52;-1.30;99.90
35043;DHT22;21230;51.170;17.024;2023-04-06T01:37:31;-1.40;99.90
35043;DHT22;21230;51.170;17.024;2023-04-06T01:39:58;-1.40;99.90
35043;DHT22;21230;51.170;17.024;2023-04-06T01:42:27;-1.40;99.90
35043;DHT22;21230;51.170;17.024;2023-04-06T01:44:53;-1.40;99.90
35043;DHT22;21230;51.170;17.024;2023-04-06T01:47:19;-1.40;99.90
35043;DHT22;21230;51.170;17.024;2023-04-06T01:49:44;-1.40;99.90
35043;DHT22;21230;51.170;17.024;2023-04-06T01:52:10;-1.30;99.90
35043;DHT22;21230;51.170;17.024;2023-04-06T01:54:36;-1.30;99.90
35043;DHT22;21230;51.170;17.024;2023-04-06T01:57:02;-1.30;99.90
35043;DHT22;21230;51.170;17.024;2023-04-06T01:59:27;-1.40;99.90
35043;DHT22;21230;51.170;17.024;2023-04-06T02:01:53;-1.40;99.90
35043;DHT22;21230;51.170;17.024;2023-04-06T02:04:18;-1.40;99.90
35043;DHT22;21230;51.170;17.024;2023-04-06T02:06:47;-1.40;99.90
35043;DHT22;21230;51.170;17.024;2023-04-06T02:09:13;-1.50;99.90
35043;DHT22;21230;51.170;17.024;2023-04-06T02:11:46;-1.50;99.90
35043;DHT22;21230;51.170;17.024;2023-04-06T02:14:15;-1.50;99.90
35043;DHT22;21230;51.170;17.024;2023-04-06T02:16:40;-1.60;99.90
35043;DHT22;21230;51.170;17.024;2023-04-06T02:19:06;-1.60;99.90
35043;DHT22;21230;51.170;17.024;2023-04-06T02:21:35;-1.60;99.90
35043;DHT22;21230;51.170;17.024;2023-04-06T02:24:03;-1.70;99.90
35043;DHT22;21230;51.170;17.024;2023-04-06T02:26:29;-1.70;99.90
35043;DHT22;21230;51.170;17.024;2023-04-06T02:28:55;-1.70;99.90
35043;DHT22;21230;51.170;17.024;2023-04-06T02:31:24;-1.80;99.90
35043;DHT22;21230;51.170;17.024;2023-04-06T02:33:58;-1.80;99.90
35043;DHT22;21230;51.170;17.024;2023-04-06T02:36:27;-1.80;99.90
35043;DHT22;21230;51.170;17.024;2023-04-06T02:38:53;-1.80;99.90
35043;DHT22;21230;51.170;17.024;2023-04-06T02:41:19;-1.80;99.90
35043;DHT22;21230;51.170;17.024;2023-04-06T02:43:48;-1.80;99.90
35043;DHT22;21230;51.170;17.024;2023-04-06T02:46:17;-1.80;99.90
35043;DHT22;21230;51.170;17.024;2023-04-06T02:48:49;-1.80;99.90
35043;DHT22;21230;51.170;17.024;2023-04-06T02:51:25;-1.80;99.90
35043;DHT22;21230;51.170;17.024;2023-04-06T02:53:51;-1.70;99.90
35043;DHT22;21230;51.170;17.024;2023-04-06T02:56:25;-1.80;99.90
35043;DHT22;21230;51.170;17.024;2023-04-06T02:58:52;-1.90;99.90
35043;DHT22;21230;51.170;17.024;2023-04-06T03:01:21;-1.90;99.90
35043;DHT22;21230;51.170;17.024;2023-04-06T03:03:50;-1.90;99.90
35043;DHT22;21230;51.170;17.024;2023-04-06T03:06:16;-1.90;99.90
35043;DHT22;21230;51.170;17.024;2023-04-06T03:08:41;-1.90;99.90
35043;DHT22;21230;51.170;17.024;2023-04-06T03:11:07;-1.90;99.90
35043;DHT22;21230;51.170;17.024;2023-04-06T03:13:38;-1.90;99.90
35043;DHT22;21230;51.170;17.024;2023-04-06T03:16:05;-1.90;99.90
35043;DHT22;21230;51.170;17.024;2023-04-06T03:18:34;-1.80;99.90
35043;DHT22;21230;51.170;17.024;2023-04-06T03:21:01;-1.80;99.90
35043;DHT22;21230;51.170;17.024;2023-04-06T03:23:26;-1.80;99.90
35043;DHT22;21230;51.170;17.024;2023-04-06T03:25:52;-1.80;99.90
35043;DHT22;21230;51.170;17.024;2023-04-06T03:28:21;-1.80;99.90
35043;DHT22;21230;51.170;17.024;2023-04-06T03:30:47;-1.80;99.90
35043;DHT22;21230;51.170;17.024;2023-04-06T03:33:13;-1.80;99.90
35043;DHT22;21230;51.170;17.024;2023-04-06T03:35:39;-1.90;99.90
35043;DHT22;21230;51.170;17.024;2023-04-06T03:38:10;-1.80;99.90
35043;DHT22;21230;51.170;17.024;2023-04-06T03:40:39;-1.90;99.90
35043;DHT22;21230;51.170;17.024;2023-04-06T03:43:08;-1.90;99.90
35043;DHT22;21230;51.170;17.024;2023-04-06T03:45:34;-1.90;99.90
35043;DHT22;21230;51.170;17.024;2023-04-06T03:48:09;-1.90;99.90
35043;DHT22;21230;51.170;17.024;2023-04-06T03:50:40;-1.90;99.90
35043;DHT22;21230;51.170;17.024;2023-04-06T03:53:06;-1.90;99.90
35043;DHT22;21230;51.170;17.024;2023-04-06T03:55:35;-1.90;99.90
35043;DHT22;21230;51.170;17.024;2023-04-06T03:58:04;-2.00;99.90
35043;DHT22;21230;51.170;17.024;2023-04-06T04:00:30;-2.00;99.90
35043;DHT22;21230;51.170;17.024;2023-04-06T04:02:58;-2.00;99.90
35043;DHT22;21230;51.170;17.024;2023-04-06T04:05:24;-2.00;99.90
35043;DHT22;21230;51.170;17.024;2023-04-06T04:07:53;-2.00;99.90
35043;DHT22;21230;51.170;17.024;2023-04-06T04:10:20;-2.00;99.90
35043;DHT22;21230;51.170;17.024;2023-04-06T04:12:46;-2.00;99.90
35043;DHT22;21230;51.170;17.024;2023-04-06T04:15:12;-1.90;99.90
35043;DHT22;21230;51.170;17.024;2023-04-06T04:17:37;-1.90;99.90
35043;DHT22;21230;51.170;17.024;2023-04-06T04:20:03;-1.90;99.90
35043;DHT22;21230;51.170;17.024;2023-04-06T04:22:29;-1.90;99.90
35043;DHT22;21230;51.170;17.024;2023-04-06T04:24:55;-1.90;99.90
35043;DHT22;21230;51.170;17.024;2023-04-06T04:30:12;-2.00;99.90
35043;DHT22;21230;51.170;17.024;2023-04-06T04:32:41;-2.00;99.90
35043;DHT22;21230;51.170;17.024;2023-04-06T04:35:07;-1.90;99.90
35043;DHT22;21230;51.170;17.024;2023-04-06T04:37:33;-1.90;99.90
35043;DHT22;21230;51.170;17.024;2023-04-06T04:40:00;-1.90;99.90
35043;DHT22;21230;51.170;17.024;2023-04-06T04:42:26;-1.90;99.90
35043;DHT22;21230;51.170;17.024;2023-04-06T04:44:51;-1.90;99.90
35043;DHT22;21230;51.170;17.024;2023-04-06T04:47:17;-2.00;99.90
35043;DHT22;21230;51.170;17.024;2023-04-06T04:49:43;-2.00;99.90
35043;DHT22;21230;51.170;17.024;2023-04-06T04:52:11;-2.00;99.90
35043;DHT22;21230;51.170;17.024;2023-04-06T04:54:43;-2.00;99.90
35043;DHT22;21230;51.170;17.024;2023-04-06T04:57:13;-2.00;99.90
35043;DHT22;21230;51.170;17.024;2023-04-06T04:59:42;-1.90;99.90
35043;DHT22;21230;51.170;17.024;2023-04-06T05:02:08;-1.90;99.90
35043;DHT22;21230;51.170;17.024;2023-04-06T05:04:33;-1.90;99.90
35043;DHT22;21230;51.170;17.024;2023-04-06T05:07:05;-1.90;99.90
35043;DHT22;21230;51.170;17.024;2023-04-06T05:09:40;-1.80;99.90
35043;DHT22;21230;51.170;17.024;2023-04-06T05:12:17;-1.80;99.90
35043;DHT22;21230;51.170;17.024;2023-04-06T05:14:43;-1.70;99.90
35043;DHT22;21230;51.170;17.024;2023-04-06T05:17:10;-1.60;99.90
35043;DHT22;21230;51.170;17.024;2023-04-06T05:19:35;-1.60;99.90
35043;DHT22;21230;51.170;17.024;2023-04-06T05:22:01;-1.50;99.90
35043;DHT22;21230;51.170;17.024;2023-04-06T05:24:27;-1.40;99.90
35043;DHT22;21230;51.170;17.024;2023-04-06T05:26:52;-1.40;99.90
35043;DHT22;21230;51.170;17.024;2023-04-06T05:29:21;-1.30;99.90
35043;DHT22;21230;51.170;17.024;2023-04-06T05:31:47;-1.30;99.90
35043;DHT22;21230;51.170;17.024;2023-04-06T05:34:12;-1.20;99.90
35043;DHT22;21230;51.170;17.024;2023-04-06T05:36:38;-1.20;99.90
35043;DHT22;21230;51.170;17.024;2023-04-06T05:39:05;-1.10;99.90
35043;DHT22;21230;51.170;17.024;2023-04-06T05:41:43;-1.00;99.90
35043;DHT22;21230;51.170;17.024;2023-04-06T05:44:12;-1.00;99.90
35043;DHT22;21230;51.170;17.024;2023-04-06T05:46:41;-0.90;99.90
35043;DHT22;21230;51.170;17.024;2023-04-06T05:49:07;-0.90;99.90
35043;DHT22;21230;51.170;17.024;2023-04-06T05:51:33;-0.80;99.90
35043;DHT22;21230;51.170;17.024;2023-04-06T05:54:01;-0.70;99.90
35043;DHT22;21230;51.170;17.024;2023-04-06T05:56:27;-0.60;99.90
35043;DHT22;21230;51.170;17.024;2023-04-06T05:58:58;-0.50;99.90
35043;DHT22;21230;51.170;17.024;2023-04-06T06:04:05;-0.30;99.90
35043;DHT22;21230;51.170;17.024;2023-04-06T06:06:30;-0.20;99.90
35043;DHT22;21230;51.170;17.024;2023-04-06T06:08:56;-0.10;99.90
35043;DHT22;21230;51.170;17.024;2023-04-06T06:11:26;-0.10;99.90
35043;DHT22;21230;51.170;17.024;2023-04-06T06:13:52;0.00;99.90
35043;DHT22;21230;51.170;17.024;2023-04-06T06:16:21;0.10;99.90
35043;DHT22;21230;51.170;17.024;2023-04-06T06:18:47;0.20;99.90
35043;DHT22;21230;51.170;17.024;2023-04-06T06:21:16;0.40;99.90
35043;DHT22;21230;51.170;17.024;2023-04-06T06:23:42;0.50;99.90
35043;DHT22;21230;51.170;17.024;2023-04-06T06:26:08;0.60;99.90
35043;DHT22;21230;51.170;17.024;2023-04-06T06:28:35;0.80;99.90
35043;DHT22;21230;51.170;17.024;2023-04-06T06:31:01;0.90;99.90
35043;DHT22;21230;51.170;17.024;2023-04-06T06:33:27;1.00;99.90
35043;DHT22;21230;51.170;17.024;2023-04-06T06:36:15;1.20;99.90
35043;DHT22;21230;51.170;17.024;2023-04-06T06:38:40;1.20;99.90
35043;DHT22;21230;51.170;17.024;2023-04-06T06:41:09;1.40;99.90
35043;DHT22;21230;51.170;17.024;2023-04-06T06:43:35;1.50;99.90
35043;DHT22;21230;51.170;17.024;2023-04-06T06:46:01;1.50;99.90
35043;DHT22;21230;51.170;17.024;2023-04-06T06:48:26;1.50;99.90
35043;DHT22;21230;51.170;17.024;2023-04-06T06:50:52;1.60;99.90
35043;DHT22;21230;51.170;17.024;2023-04-06T06:53:19;1.70;99.90
35043;DHT22;21230;51.170;17.024;2023-04-06T06:55:50;1.80;99.90
35043;DHT22;21230;51.170;17.024;2023-04-06T06:58:17;1.90;99.90
35043;DHT22;21230;51.170;17.024;2023-04-06T07:00:46;2.00;99.90
35043;DHT22;21230;51.170;17.024;2023-04-06T07:03:12;2.00;99.90
35043;DHT22;21230;51.170;17.024;2023-04-06T07:05:50;2.00;99.90
35043;DHT22;21230;51.170;17.024;2023-04-06T07:08:20;2.10;99.90
35043;DHT22;21230;51.170;17.024;2023-04-06T07:10:45;2.10;99.90
35043;DHT22;21230;51.170;17.024;2023-04-06T07:13:11;2.10;99.90
35043;DHT22;21230;51.170;17.024;2023-04-06T07:15:40;2.20;99.90
35043;DHT22;21230;51.170;17.024;2023-04-06T07:18:09;2.40;99.90
35043;DHT22;21230;51.170;17.024;2023-04-06T07:20:35;2.50;99.90
35043;DHT22;21230;51.170;17.024;2023-04-06T07:23:01;2.60;99.90
35043;DHT22;21230;51.170;17.024;2023-04-06T07:25:27;2.70;99.90
35043;DHT22;21230;51.170;17.024;2023-04-06T07:27:56;2.80;99.90
35043;DHT22;21230;51.170;17.024;2023-04-06T07:30:22;2.90;99.90
35043;DHT22;21230;51.170;17.024;2023-04-06T07:32:48;3.00;99.90
35043;DHT22;21230;51.170;17.024;2023-04-06T07:35:14;3.10;99.90
35043;DHT22;21230;51.170;17.024;2023-04-06T07:37:40;3.20;99.90
35043;DHT22;21230;51.170;17.024;2023-04-06T07:40:09;3.30;99.90
35043;DHT22;21230;51.170;17.024;2023-04-06T07:42:35;3.30;99.90
35043;DHT22;21230;51.170;17.024;2023-04-06T07:45:01;3.50;99.90
35043;DHT22;21230;51.170;17.024;2023-04-06T07:47:31;3.60;99.90
35043;DHT22;21230;51.170;17.024;2023-04-06T07:49:57;3.80;99.90
35043;DHT22;21230;51.170;17.024;2023-04-06T07:52:25;3.90;99.90
35043;DHT22;21230;51.170;17.024;2023-04-06T07:54:51;4.00;99.90
35043;DHT22;21230;51.170;17.024;2023-04-06T07:57:20;4.20;99.90
35043;DHT22;21230;51.170;17.024;2023-04-06T07:59:46;4.20;99.90
35043;DHT22;21230;51.170;17.024;2023-04-06T08:02:14;4.40;99.00
35043;DHT22;21230;51.170;17.024;2023-04-06T08:04:40;4.50;99.90
35043;DHT22;21230;51.170;17.024;2023-04-06T08:07:06;4.70;99.90
35043;DHT22;21230;51.170;17.024;2023-04-06T08:09:44;4.80;99.90
35043;DHT22;21230;51.170;17.024;2023-04-06T08:12:13;4.90;98.60
35043;DHT22;21230;51.170;17.024;2023-04-06T08:14:44;5.00;95.10
35043;DHT22;21230;51.170;17.024;2023-04-06T08:17:13;5.00;91.50
35043;DHT22;21230;51.170;17.024;2023-04-06T08:19:38;4.90;90.50
35043;DHT22;21230;51.170;17.024;2023-04-06T08:22:04;4.90;79.40
35043;DHT22;21230;51.170;17.024;2023-04-06T08:27:37;5.00;90.00
35043;DHT22;21230;51.170;17.024;2023-04-06T08:30:09;5.00;79.20
35043;DHT22;21230;51.170;17.024;2023-04-06T08:32:41;5.10;80.20
35043;DHT22;21230;51.170;17.024;2023-04-06T08:35:07;5.10;77.70
35043;DHT22;21230;51.170;17.024;2023-04-06T08:37:36;5.10;72.30
35043;DHT22;21230;51.170;17.024;2023-04-06T08:40:10;5.00;66.30
35043;DHT22;21230;51.170;17.024;2023-04-06T08:42:39;4.90;66.20
35043;DHT22;21230;51.170;17.024;2023-04-06T08:45:05;5.10;67.60
35043;DHT22;21230;51.170;17.024;2023-04-06T08:50:24;5.10;64.70
35043;DHT22;21230;51.170;17.024;2023-04-06T08:52:50;5.20;67.00
35043;DHT22;21230;51.170;17.024;2023-04-06T08:55:15;5.40;65.70
35043;DHT22;21230;51.170;17.024;2023-04-06T08:57:41;5.30;62.20
35043;DHT22;21230;51.170;17.024;2023-04-06T09:00:20;5.30;61.20
35043;DHT22;21230;51.170;17.024;2023-04-06T09:02:45;5.30;62.10
35043;DHT22;21230;51.170;17.024;2023-04-06T09:05:11;5.40;66.00
35043;DHT22;21230;51.170;17.024;2023-04-06T09:07:37;5.50;60.40
35043;DHT22;21230;51.170;17.024;2023-04-06T09:10:07;5.50;58.10
35043;DHT22;21230;51.170;17.024;2023-04-06T09:12:36;5.60;59.40
35043;DHT22;21230;51.170;17.024;2023-04-06T09:15:02;5.70;65.20
35043;DHT22;21230;51.170;17.024;2023-04-06T09:17:29;5.90;63.40
35043;DHT22;21230;51.170;17.024;2023-04-06T09:19:56;5.90;61.60
35043;DHT22;21230;51.170;17.024;2023-04-06T09:22:22;5.80;57.50
35043;DHT22;21230;51.170;17.024;2023-04-06T09:24:50;5.80;55.00
35043;DHT22;21230;51.170;17.024;2023-04-06T09:27:37;5.70;55.80
35043;DHT22;21230;51.170;17.024;2023-04-06T09:30:11;5.70;58.10
35043;DHT22;21230;51.170;17.024;2023-04-06T09:32:45;5.70;56.20
35043;DHT22;21230;51.170;17.024;2023-04-06T09:35:12;5.80;55.70
35043;DHT22;21230;51.170;17.024;2023-04-06T09:37:38;5.80;56.70
35043;DHT22;21230;51.170;17.024;2023-04-06T09:40:07;5.80;54.80
35043;DHT22;21230;51.170;17.024;2023-04-06T09:42:49;5.70;56.70
35043;DHT22;21230;51.170;17.024;2023-04-06T09:45:18;5.40;53.80
35043;DHT22;21230;51.170;17.024;2023-04-06T09:47:44;5.40;53.70
35043;DHT22;21230;51.170;17.024;2023-04-06T09:50:11;5.50;53.40
35043;DHT22;21230;51.170;17.024;2023-04-06T09:52:37;5.70;54.50
35043;DHT22;21230;51.170;17.024;2023-04-06T09:55:07;5.90;54.00
35043;DHT22;21230;51.170;17.024;2023-04-06T09:57:50;6.20;55.30
35043;DHT22;21230;51.170;17.024;2023-04-06T10:00:22;6.40;52.30
35043;DHT22;21230;51.170;17.024;2023-04-06T10:03:08;6.30;51.30
35043;DHT22;21230;51.170;17.024;2023-04-06T10:08:41;6.30;50.90
35043;DHT22;21230;51.170;17.024;2023-04-06T10:11:27;6.20;52.20
35043;DHT22;21230;51.170;17.024;2023-04-06T10:14:12;6.00;46.90
35043;DHT22;21230;51.170;17.024;2023-04-06T10:16:38;5.90;48.10
35043;DHT22;21230;51.170;17.024;2023-04-06T10:19:18;6.00;49.00
35043;DHT22;21230;51.170;17.024;2023-04-06T10:22:06;6.00;45.40
35043;DHT22;21230;51.170;17.024;2023-04-06T10:24:54;6.30;48.30
35043;DHT22;21230;51.170;17.024;2023-04-06T10:27:33;6.20;46.20
35043;DHT22;21230;51.170;17.024;2023-04-06T10:30:04;6.20;47.30
35043;DHT22;21230;51.170;17.024;2023-04-06T10:35:08;6.40;45.80
35043;DHT22;21230;51.170;17.024;2023-04-06T10:37:51;6.30;45.50
35043;DHT22;21230;51.170;17.024;2023-04-06T10:40:31;6.40;45.50
35043;DHT22;21230;51.170;17.024;2023-04-06T10:43:12;6.40;46.10
35043;DHT22;21230;51.170;17.024;2023-04-06T10:45:54;6.60;46.70
35043;DHT22;21230;51.170;17.024;2023-04-06T10:48:20;6.70;48.50
35043;DHT22;21230;51.170;17.024;2023-04-06T10:50:48;7.00;52.10
35043;DHT22;21230;51.170;17.024;2023-04-06T10:53:25;7.00;47.90
35043;DHT22;21230;51.170;17.024;2023-04-06T10:55:53;6.90;47.20
35043;DHT22;21230;51.170;17.024;2023-04-06T10:58:34;6.80;46.60
35043;DHT22;21230;51.170;17.024;2023-04-06T11:01:01;6.70;48.40
35043;DHT22;21230;51.170;17.024;2023-04-06T11:03:27;6.60;46.70
35043;DHT22;21230;51.170;17.024;2023-04-06T11:05:54;6.60;46.40
35043;DHT22;21230;51.170;17.024;2023-04-06T11:08:25;6.60;45.20
35043;DHT22;21230;51.170;17.024;2023-04-06T11:11:12;6.60;43.90
35043;DHT22;21230;51.170;17.024;2023-04-06T11:13:44;6.70;45.20
35043;DHT22;21230;51.170;17.024;2023-04-06T11:16:13;7.00;44.40
35043;DHT22;21230;51.170;17.024;2023-04-06T11:19:13;7.10;43.50
35043;DHT22;21230;51.170;17.024;2023-04-06T11:21:35;7.10;42.50
35043;DHT22;21230;51.170;17.024;2023-04-06T11:26:38;6.90;43.30
35043;DHT22;21230;51.170;17.024;2023-04-06T11:29:07;7.00;44.40
35043;DHT22;21230;51.170;17.024;2023-04-06T11:31:37;7.00;44.30
35043;DHT22;21230;51.170;17.024;2023-04-06T11:34:15;7.00;43.90
35043;DHT22;21230;51.170;17.024;2023-04-06T11:36:42;7.00;45.00
35043;DHT22;21230;51.170;17.024;2023-04-06T11:39:17;7.10;46.70
35043;DHT22;21230;51.170;17.024;2023-04-06T11:41:48;7.30;47.40
35043;DHT22;21230;51.170;17.024;2023-04-06T11:44:26;7.50;44.10
35043;DHT22;21230;51.170;17.024;2023-04-06T11:46:56;7.40;42.40
35043;DHT22;21230;51.170;17.024;2023-04-06T11:49:26;7.40;41.70
35043;DHT22;21230;51.170;17.024;2023-04-06T11:51:55;7.20;42.70
35043;DHT22;21230;51.170;17.024;2023-04-06T11:54:33;7.20;43.00
35043;DHT22;21230;51.170;17.024;2023-04-06T11:57:05;7.10;42.30
35043;DHT22;21230;51.170;17.024;2023-04-06T11:59:31;7.00;40.00
35043;DHT22;21230;51.170;17.024;2023-04-06T12:01:57;6.90;40.20
35043;DHT22;21230;51.170;17.024;2023-04-06T12:04:23;6.90;40.10
35043;DHT22;21230;51.170;17.024;2023-04-06T12:06:49;7.00;40.70
35043;DHT22;21230;51.170;17.024;2023-04-06T12:09:15;7.00;40.60
35043;DHT22;21230;51.170;17.024;2023-04-06T12:11:42;7.00;41.50
35043;DHT22;21230;51.170;17.024;2023-04-06T12:14:07;7.10;41.90
35043;DHT22;21230;51.170;17.024;2023-04-06T12:16:36;7.00;40.30
35043;DHT22;21230;51.170;17.024;2023-04-06T12:19:06;7.00;40.70
35043;DHT22;21230;51.170;17.024;2023-04-06T12:21:38;7.20;40.20
35043;DHT22;21230;51.170;17.024;2023-04-06T12:24:04;7.10;40.10
35043;DHT22;21230;51.170;17.024;2023-04-06T12:26:29;7.00;40.30
35043;DHT22;21230;51.170;17.024;2023-04-06T12:28:55;7.00;42.00
35043;DHT22;21230;51.170;17.024;2023-04-06T12:31:21;7.00;41.30
35043;DHT22;21230;51.170;17.024;2023-04-06T12:33:48;7.10;41.20
35043;DHT22;21230;51.170;17.024;2023-04-06T12:36:18;7.10;40.70
35043;DHT22;21230;51.170;17.024;2023-04-06T12:38:47;7.10;40.60
35043;DHT22;21230;51.170;17.024;2023-04-06T12:41:18;7.10;40.90
35043;DHT22;21230;51.170;17.024;2023-04-06T12:43:48;7.10;40.40
35043;DHT22;21230;51.170;17.024;2023-04-06T12:46:15;7.30;40.10
35043;DHT22;21230;51.170;17.024;2023-04-06T12:48:40;7.30;40.50
35043;DHT22;21230;51.170;17.024;2023-04-06T12:51:06;7.50;39.20
35043;DHT22;21230;51.170;17.024;2023-04-06T12:53:33;7.40;38.20
35043;DHT22;21230;51.170;17.024;2023-04-06T12:55:59;7.30;38.90
35043;DHT22;21230;51.170;17.024;2023-04-06T12:58:26;7.40;38.90
35043;DHT22;21230;51.170;17.024;2023-04-06T13:00:57;7.30;39.40
35043;DHT22;21230;51.170;17.024;2023-04-06T13:03:30;7.50;39.30
35043;DHT22;21230;51.170;17.024;2023-04-06T13:06:00;7.50;40.30
35043;DHT22;21230;51.170;17.024;2023-04-06T13:08:26;7.40;38.50
35043;DHT22;21230;51.170;17.024;2023-04-06T13:10:52;7.20;38.10
35043;DHT22;21230;51.170;17.024;2023-04-06T13:13:42;7.20;38.00
35043;DHT22;21230;51.170;17.024;2023-04-06T13:16:20;7.30;39.60
35043;DHT22;21230;51.170;17.024;2023-04-06T13:18:46;7.40;39.00
35043;DHT22;21230;51.170;17.024;2023-04-06T13:21:15;7.60;39.20
35043;DHT22;21230;51.170;17.024;2023-04-06T13:23:41;7.50;37.40
35043;DHT22;21230;51.170;17.024;2023-04-06T13:26:07;7.40;36.50
35043;DHT22;21230;51.170;17.024;2023-04-06T13:28:38;7.30;37.00
35043;DHT22;21230;51.170;17.024;2023-04-06T13:31:05;7.30;37.80
35043;DHT22;21230;51.170;17.024;2023-04-06T13:33:36;7.20;39.10
35043;DHT22;21230;51.170;17.024;2023-04-06T13:36:02;7.20;40.50
35043;DHT22;21230;51.170;17.024;2023-04-06T13:38:47;7.30;41.00
35043;DHT22;21230;51.170;17.024;2023-04-06T13:41:22;7.20;39.70
35043;DHT22;21230;51.170;17.024;2023-04-06T13:43:56;7.20;39.30
35043;DHT22;21230;51.170;17.024;2023-04-06T13:46:26;7.20;40.40
35043;DHT22;21230;51.170;17.024;2023-04-06T13:48:52;7.10;38.70
35043;DHT22;21230;51.170;17.024;2023-04-06T13:51:27;6.90;37.70
35043;DHT22;21230;51.170;17.024;2023-04-06T13:53:59;6.90;37.90
35043;DHT22;21230;51.170;17.024;2023-04-06T13:56:45;6.90;38.10
35043;DHT22;21230;51.170;17.024;2023-04-06T13:59:10;7.10;39.10
35043;DHT22;21230;51.170;17.024;2023-04-06T14:01:38;7.30;40.40
35043;DHT22;21230;51.170;17.024;2023-04-06T14:04:03;7.40;39.70
35043;DHT22;21230;51.170;17.024;2023-04-06T14:06:39;7.50;39.60
35043;DHT22;21230;51.170;17.024;2023-04-06T14:09:15;7.40;39.10
35043;DHT22;21230;51.170;17.024;2023-04-06T14:11:43;7.40;39.30
35043;DHT22;21230;51.170;17.024;2023-04-06T14:14:12;7.40;40.00
35043;DHT22;21230;51.170;17.024;2023-04-06T14:16:44;7.30;39.80
35043;DHT22;21230;51.170;17.024;2023-04-06T14:19:16;7.30;41.00
35043;DHT22;21230;51.170;17.024;2023-04-06T14:21:49;7.30;41.10
35043;DHT22;21230;51.170;17.024;2023-04-06T14:24:18;7.30;40.80
35043;DHT22;21230;51.170;17.024;2023-04-06T14:26:47;7.20;40.00
35043;DHT22;21230;51.170;17.024;2023-04-06T14:29:15;7.30;41.70
35043;DHT22;21230;51.170;17.024;2023-04-06T14:31:52;7.40;41.30
35043;DHT22;21230;51.170;17.024;2023-04-06T14:34:18;7.50;40.20
35043;DHT22;21230;51.170;17.024;2023-04-06T14:36:45;7.70;40.50
35043;DHT22;21230;51.170;17.024;2023-04-06T14:39:11;7.70;38.90
35043;DHT22;21230;51.170;17.024;2023-04-06T14:41:37;7.80;39.60
35043;DHT22;21230;51.170;17.024;2023-04-06T14:44:06;7.70;38.50
35043;DHT22;21230;51.170;17.024;2023-04-06T14:47:00;7.60;39.10
35043;DHT22;21230;51.170;17.024;2023-04-06T14:49:25;7.50;38.30
35043;DHT22;21230;51.170;17.024;2023-04-06T14:51:51;7.60;39.80
35043;DHT22;21230;51.170;17.024;2023-04-06T14:54:17;7.60;40.20
35043;DHT22;21230;51.170;17.024;2023-04-06T14:56:46;7.60;39.40
35043;DHT22;21230;51.170;17.024;2023-04-06T14:59:12;7.60;39.40
35043;DHT22;21230;51.170;17.024;2023-04-06T15:01:37;7.80;39.80
35043;DHT22;21230;51.170;17.024;2023-04-06T15:04:06;7.70;38.30
35043;DHT22;21230;51.170;17.024;2023-04-06T15:06:32;7.60;38.70
35043;DHT22;21230;51.170;17.024;2023-04-06T15:09:01;7.60;38.90
35043;DHT22;21230;51.170;17.024;2023-04-06T15:11:30;7.50;38.00
35043;DHT22;21230;51.170;17.024;2023-04-06T15:13:59;7.60;40.30
35043;DHT22;21230;51.170;17.024;2023-04-06T15:16:25;7.60;39.10
35043;DHT22;21230;51.170;17.024;2023-04-06T15:18:51;7.60;39.40
35043;DHT22;21230;51.170;17.024;2023-04-06T15:21:17;7.60;40.80
35043;DHT22;21230;51.170;17.024;2023-04-06T15:23:45;7.70;41.30
35043;DHT22;21230;51.170;17.024;2023-04-06T15:26:11;7.60;40.80
35043;DHT22;21230;51.170;17.024;2023-04-06T15:28:36;7.60;40.70
35043;DHT22;21230;51.170;17.024;2023-04-06T15:31:02;7.50;41.00
35043;DHT22;21230;51.170;17.024;2023-04-06T15:33:31;7.70;41.10
35043;DHT22;21230;51.170;17.024;2023-04-06T15:35:56;7.60;39.50
35043;DHT22;21230;51.170;17.024;2023-04-06T15:38:22;7.60;40.90
35043;DHT22;21230;51.170;17.024;2023-04-06T15:40:48;7.60;40.70
35043;DHT22;21230;51.170;17.024;2023-04-06T15:43:14;7.60;40.90
35043;DHT22;21230;51.170;17.024;2023-04-06T15:45:40;7.60;40.60
35043;DHT22;21230;51.170;17.024;2023-04-06T15:48:06;7.50;40.90
35043;DHT22;21230;51.170;17.024;2023-04-06T15:50:32;7.50;40.20
35043;DHT22;21230;51.170;17.024;2023-04-06T15:52:58;7.50;40.70
35043;DHT22;21230;51.170;17.024;2023-04-06T15:55:23;7.60;40.20
35043;DHT22;21230;51.170;17.024;2023-04-06T15:57:49;7.60;40.00
35043;DHT22;21230;51.170;17.024;2023-04-06T16:00:15;7.50;40.80